sensor_id;sensor_type;location;lat;lon;timestamp;P1;durP1;ratioP1;P2;durP2;ratioP2
25449;SDS011;13371;52.080;5.624;2023-07-31T00:01:10;3.90;;;1.63;;
25449;SDS011;13371;52.080;5.624;2023-07-31T00:03:35;2.53;;;1.70;;
25449;SDS011;13371;52.080;5.624;2023-07-31T00:06:01;3.13;;;1.90;;
25449;SDS011;13371;52.080;5.624;2023-07-31T00:08:27;1.88;;;1.55;;
25449;SDS011;13371;52.080;5.624;2023-07-31T00:10:52;3.60;;;1.80;;
25449;SDS011;13371;52.080;5.624;2023-07-31T00:13:18;3.70;;;2.13;;
25449;SDS011;13371;52.080;5.624;2023-07-31T00:15:43;3.45;;;2.00;;
25449;SDS011;13371;52.080;5.624;2023-07-31T00:18:09;2.95;;;2.10;;
25449;SDS011;13371;52.080;5.624;2023-07-31T00:20:35;2.40;;;1.42;;
25449;SDS011;13371;52.080;5.624;2023-07-31T00:23:00;1.73;;;1.08;;
25449;SDS011;13371;52.080;5.624;2023-07-31T00:25:26;1.67;;;1.13;;
25449;SDS011;13371;52.080;5.624;2023-07-31T00:27:51;2.90;;;2.00;;
25449;SDS011;13371;52.080;5.624;2023-07-31T00:30:17;2.72;;;1.88;;
25449;SDS011;13371;52.080;5.624;2023-07-31T00:32:42;3.35;;;2.22;;
25449;SDS011;13371;52.080;5.624;2023-07-31T00:35:08;4.97;;;2.22;;
25449;SDS011;13371;52.080;5.624;2023-07-31T00:37:33;4.70;;;3.35;;
25449;SDS011;13371;52.080;5.624;2023-07-31T00:39:59;3.55;;;2.65;;
25449;SDS011;13371;52.080;5.624;2023-07-31T00:42:25;7.18;;;3.35;;
25449;SDS011;13371;52.080;5.624;2023-07-31T00:44:50;6.85;;;3.63;;
25449;SDS011;13371;52.080;5.624;2023-07-31T00:47:16;7.72;;;4.60;;
25449;SDS011;13371;52.080;5.624;2023-07-31T00:49:42;12.15;;;5.15;;
25449;SDS011;13371;52.080;5.624;2023-07-31T00:52:09;13.45;;;5.22;;
25449;SDS011;13371;52.080;5.624;2023-07-31T00:54:35;14.15;;;6.47;;
25449;SDS011;13371;52.080;5.624;2023-07-31T00:57:01;15.50;;;6.75;;
25449;SDS011;13371;52.080;5.624;2023-07-31T00:59:27;23.77;;;7.07;;
25449;SDS011;13371;52.080;5.624;2023-07-31T01:01:53;21.75;;;7.40;;
25449;SDS011;13371;52.080;5.624;2023-07-31T01:04:19;20.13;;;7.13;;
25449;SDS011;13371;52.080;5.624;2023-07-31T01:06:47;21.98;;;7.57;;
25449;SDS011;13371;52.080;5.624;2023-07-31T01:09:28;26.85;;;9.02;;
25449;SDS011;13371;52.080;5.624;2023-07-31T01:11:57;21.40;;;8.60;;
25449;SDS011;13371;52.080;5.624;2023-07-31T01:14:26;28.15;;;8.30;;
25449;SDS011;13371;52.080;5.624;2023-07-31T01:16:52;26.60;;;9.52;;
25449;SDS011;13371;52.080;5.624;2023-07-31T01:19:18;30.70;;;9.13;;
25449;SDS011;13371;52.080;5.624;2023-07-31T01:22:12;26.08;;;8.15;;
25449;SDS011;13371;52.080;5.624;2023-07-31T01:27:40;29.80;;;8.90;;
25449;SDS011;13371;52.080;5.624;2023-07-31T01:30:16;35.42;;;9.38;;
25449;SDS011;13371;52.080;5.624;2023-07-31T01:32:47;23.80;;;8.43;;
25449;SDS011;13371;52.080;5.624;2023-07-31T01:35:14;26.90;;;8.73;;
25449;SDS011;13371;52.080;5.624;2023-07-31T01:37:40;27.88;;;8.10;;
25449;SDS011;13371;52.080;5.624;2023-07-31T01:40:06;28.77;;;9.30;;
25449;SDS011;13371;52.080;5.624;2023-07-31T01:42:33;24.83;;;7.70;;
25449;SDS011;13371;52.080;5.624;2023-07-31T01:44:58;24.05;;;7.05;;
25449;SDS011;13371;52.080;5.624;2023-07-31T01:47:24;33.20;;;9.43;;
25449;SDS011;13371;52.080;5.624;2023-07-31T01:49:49;24.75;;;7.53;;
25449;SDS011;13371;52.080;5.624;2023-07-31T01:52:15;31.15;;;8.35;;
25449;SDS011;13371;52.080;5.624;2023-07-31T01:54:40;20.17;;;6.30;;
25449;SDS011;13371;52.080;5.624;2023-07-31T01:57:06;23.80;;;6.35;;
25449;SDS011;13371;52.080;5.624;2023-07-31T01:59:32;25.65;;;7.57;;
25449;SDS011;13371;52.080;5.624;2023-07-31T02:01:57;17.55;;;5.65;;
25449;SDS011;13371;52.080;5.624;2023-07-31T02:04:23;18.27;;;5.28;;
25449;SDS011;13371;52.080;5.624;2023-07-31T02:06:48;20.52;;;6.43;;
25449;SDS011;13371;52.080;5.624;2023-07-31T02:09:14;18.92;;;6.80;;
25449;SDS011;13371;52.080;5.624;2023-07-31T02:11:39;20.63;;;7.22;;
25449;SDS011;13371;52.080;5.624;2023-07-31T02:14:05;13.23;;;5.10;;
25449;SDS011;13371;52.080;5.624;2023-07-31T02:16:30;15.88;;;6.03;;
25449;SDS011;13371;52.080;5.624;2023-07-31T02:18:56;15.23;;;6.30;;
25449;SDS011;13371;52.080;5.624;2023-07-31T02:21:22;15.18;;;5.07;;
25449;SDS011;13371;52.080;5.624;2023-07-31T02:23:47;22.48;;;5.97;;
25449;SDS011;13371;52.080;5.624;2023-07-31T02:26:13;9.93;;;4.85;;
25449;SDS011;13371;52.080;5.624;2023-07-31T02:28:38;15.30;;;4.63;;
25449;SDS011;13371;52.080;5.624;2023-07-31T02:31:04;10.27;;;4.35;;
25449;SDS011;13371;52.080;5.624;2023-07-31T02:33:29;12.90;;;4.95;;
25449;SDS011;13371;52.080;5.624;2023-07-31T02:35:55;15.80;;;4.97;;
25449;SDS011;13371;52.080;5.624;2023-07-31T02:38:20;14.75;;;4.80;;
25449;SDS011;13371;52.080;5.624;2023-07-31T02:40:46;15.45;;;5.07;;
25449;SDS011;13371;52.080;5.624;2023-07-31T02:43:13;15.02;;;4.57;;
25449;SDS011;13371;52.080;5.624;2023-07-31T02:45:38;15.52;;;5.00;;
25449;SDS011;13371;52.080;5.624;2023-07-31T02:48:04;15.95;;;5.88;;
25449;SDS011;13371;52.080;5.624;2023-07-31T02:50:30;16.98;;;4.97;;
25449;SDS011;13371;52.080;5.624;2023-07-31T02:52:57;16.67;;;4.95;;
25449;SDS011;13371;52.080;5.624;2023-07-31T02:55:22;12.43;;;5.53;;
25449;SDS011;13371;52.080;5.624;2023-07-31T02:57:48;18.17;;;6.30;;
25449;SDS011;13371;52.080;5.624;2023-07-31T03:00:13;20.60;;;5.57;;
25449;SDS011;13371;52.080;5.624;2023-07-31T03:02:39;19.20;;;6.20;;
25449;SDS011;13371;52.080;5.624;2023-07-31T03:05:04;24.83;;;7.78;;
25449;SDS011;13371;52.080;5.624;2023-07-31T03:07:30;18.10;;;6.15;;
25449;SDS011;13371;52.080;5.624;2023-07-31T03:09:56;19.90;;;6.45;;
25449;SDS011;13371;52.080;5.624;2023-07-31T03:12:21;20.45;;;6.57;;
25449;SDS011;13371;52.080;5.624;2023-07-31T03:14:47;27.67;;;7.90;;
25449;SDS011;13371;52.080;5.624;2023-07-31T03:17:13;24.08;;;7.85;;
25449;SDS011;13371;52.080;5.624;2023-07-31T03:19:38;20.08;;;7.68;;
25449;SDS011;13371;52.080;5.624;2023-07-31T03:22:04;24.52;;;8.15;;
25449;SDS011;13371;52.080;5.624;2023-07-31T03:24:30;20.75;;;7.65;;
25449;SDS011;13371;52.080;5.624;2023-07-31T03:26:55;21.60;;;7.68;;
25449;SDS011;13371;52.080;5.624;2023-07-31T03:29:21;29.48;;;7.55;;
25449;SDS011;13371;52.080;5.624;2023-07-31T03:31:47;28.45;;;7.63;;
25449;SDS011;13371;52.080;5.624;2023-07-31T03:34:12;30.20;;;8.35;;
25449;SDS011;13371;52.080;5.624;2023-07-31T03:36:38;21.25;;;7.35;;
25449;SDS011;13371;52.080;5.624;2023-07-31T03:39:04;27.10;;;8.02;;
25449;SDS011;13371;52.080;5.624;2023-07-31T03:41:29;27.23;;;8.45;;
25449;SDS011;13371;52.080;5.624;2023-07-31T03:43:55;21.15;;;7.03;;
25449;SDS011;13371;52.080;5.624;2023-07-31T03:46:26;26.60;;;7.90;;
25449;SDS011;13371;52.080;5.624;2023-07-31T03:48:51;24.75;;;7.65;;
25449;SDS011;13371;52.080;5.624;2023-07-31T03:51:17;28.75;;;7.80;;
25449;SDS011;13371;52.080;5.624;2023-07-31T03:53:43;19.90;;;6.95;;
25449;SDS011;13371;52.080;5.624;2023-07-31T03:56:09;19.52;;;6.75;;
25449;SDS011;13371;52.080;5.624;2023-07-31T03:58:35;19.05;;;6.75;;
25449;SDS011;13371;52.080;5.624;2023-07-31T04:01:01;22.70;;;6.95;;
25449;SDS011;13371;52.080;5.624;2023-07-31T04:03:28;18.98;;;6.68;;
25449;SDS011;13371;52.080;5.624;2023-07-31T04:05:54;25.98;;;7.38;;
25449;SDS011;13371;52.080;5.624;2023-07-31T04:08:23;22.02;;;6.88;;
25449;SDS011;13371;52.080;5.624;2023-07-31T04:10:49;21.35;;;7.10;;
25449;SDS011;13371;52.080;5.624;2023-07-31T04:13:15;20.85;;;6.90;;
25449;SDS011;13371;52.080;5.624;2023-07-31T04:15:40;17.00;;;6.40;;
25449;SDS011;13371;52.080;5.624;2023-07-31T04:18:06;26.17;;;7.22;;
25449;SDS011;13371;52.080;5.624;2023-07-31T04:20:32;17.90;;;6.85;;
25449;SDS011;13371;52.080;5.624;2023-07-31T04:22:57;25.00;;;7.22;;
25449;SDS011;13371;52.080;5.624;2023-07-31T04:25:23;21.88;;;7.15;;
25449;SDS011;13371;52.080;5.624;2023-07-31T04:27:49;27.77;;;7.80;;
25449;SDS011;13371;52.080;5.624;2023-07-31T04:30:14;18.65;;;7.60;;
25449;SDS011;13371;52.080;5.624;2023-07-31T04:32:40;20.17;;;6.82;;
25449;SDS011;13371;52.080;5.624;2023-07-31T04:35:05;18.52;;;7.05;;
25449;SDS011;13371;52.080;5.624;2023-07-31T04:37:31;23.23;;;7.22;;
25449;SDS011;13371;52.080;5.624;2023-07-31T04:39:57;23.33;;;6.80;;
25449;SDS011;13371;52.080;5.624;2023-07-31T04:42:23;22.27;;;6.88;;
25449;SDS011;13371;52.080;5.624;2023-07-31T04:44:48;20.92;;;6.82;;
25449;SDS011;13371;52.080;5.624;2023-07-31T04:47:14;23.08;;;6.95;;
25449;SDS011;13371;52.080;5.624;2023-07-31T04:49:39;30.52;;;6.90;;
25449;SDS011;13371;52.080;5.624;2023-07-31T04:52:05;17.15;;;6.65;;
25449;SDS011;13371;52.080;5.624;2023-07-31T04:54:31;30.23;;;7.10;;
25449;SDS011;13371;52.080;5.624;2023-07-31T04:56:56;19.10;;;6.55;;
25449;SDS011;13371;52.080;5.624;2023-07-31T04:59:22;18.70;;;7.18;;
25449;SDS011;13371;52.080;5.624;2023-07-31T05:01:48;19.05;;;6.47;;
25449;SDS011;13371;52.080;5.624;2023-07-31T05:04:13;25.92;;;6.85;;
25449;SDS011;13371;52.080;5.624;2023-07-31T05:06:40;21.67;;;7.18;;
25449;SDS011;13371;52.080;5.624;2023-07-31T05:09:06;19.00;;;6.82;;
25449;SDS011;13371;52.080;5.624;2023-07-31T05:11:31;23.00;;;6.63;;
25449;SDS011;13371;52.080;5.624;2023-07-31T05:13:57;15.82;;;5.70;;
25449;SDS011;13371;52.080;5.624;2023-07-31T05:16:24;21.50;;;5.53;;
25449;SDS011;13371;52.080;5.624;2023-07-31T05:18:49;22.98;;;7.68;;
25449;SDS011;13371;52.080;5.624;2023-07-31T05:21:15;21.65;;;6.78;;
25449;SDS011;13371;52.080;5.624;2023-07-31T05:23:40;21.35;;;5.80;;
25449;SDS011;13371;52.080;5.624;2023-07-31T05:26:06;15.95;;;6.55;;
25449;SDS011;13371;52.080;5.624;2023-07-31T05:28:34;22.70;;;6.10;;
25449;SDS011;13371;52.080;5.624;2023-07-31T05:31:01;17.88;;;6.00;;
25449;SDS011;13371;52.080;5.624;2023-07-31T05:33:30;21.00;;;6.28;;
25449;SDS011;13371;52.080;5.624;2023-07-31T05:35:56;15.60;;;5.05;;
25449;SDS011;13371;52.080;5.624;2023-07-31T05:38:22;16.30;;;5.40;;
25449;SDS011;13371;52.080;5.624;2023-07-31T05:40:47;13.98;;;5.22;;
25449;SDS011;13371;52.080;5.624;2023-07-31T05:43:13;15.13;;;5.90;;
25449;SDS011;13371;52.080;5.624;2023-07-31T05:45:39;12.90;;;5.07;;
25449;SDS011;13371;52.080;5.624;2023-07-31T05:48:06;17.55;;;5.43;;
25449;SDS011;13371;52.080;5.624;2023-07-31T05:50:32;19.00;;;5.68;;
25449;SDS011;13371;52.080;5.624;2023-07-31T05:52:57;14.80;;;4.47;;
25449;SDS011;13371;52.080;5.624;2023-07-31T05:55:23;11.75;;;5.10;;
25449;SDS011;13371;52.080;5.624;2023-07-31T05:57:51;15.40;;;5.78;;
25449;SDS011;13371;52.080;5.624;2023-07-31T06:00:17;13.05;;;5.68;;
25449;SDS011;13371;52.080;5.624;2023-07-31T06:02:43;14.07;;;6.00;;
25449;SDS011;13371;52.080;5.624;2023-07-31T06:05:09;14.40;;;5.97;;
25449;SDS011;13371;52.080;5.624;2023-07-31T06:07:35;14.18;;;6.13;;
25449;SDS011;13371;52.080;5.624;2023-07-31T06:10:00;12.50;;;6.25;;
25449;SDS011;13371;52.080;5.624;2023-07-31T06:12:28;14.65;;;6.45;;
25449;SDS011;13371;52.080;5.624;2023-07-31T06:14:53;13.57;;;6.88;;
25449;SDS011;13371;52.080;5.624;2023-07-31T06:17:19;14.65;;;5.30;;
25449;SDS011;13371;52.080;5.624;2023-07-31T06:19:45;13.95;;;5.95;;
25449;SDS011;13371;52.080;5.624;2023-07-31T06:22:10;17.35;;;6.57;;
25449;SDS011;13371;52.080;5.624;2023-07-31T06:24:36;12.90;;;5.93;;
25449;SDS011;13371;52.080;5.624;2023-07-31T06:27:01;14.27;;;5.63;;
25449;SDS011;13371;52.080;5.624;2023-07-31T06:29:29;16.23;;;6.18;;
25449;SDS011;13371;52.080;5.624;2023-07-31T06:31:55;14.90;;;4.93;;
25449;SDS011;13371;52.080;5.624;2023-07-31T06:34:20;10.55;;;4.80;;
25449;SDS011;13371;52.080;5.624;2023-07-31T06:36:46;9.18;;;4.40;;
25449;SDS011;13371;52.080;5.624;2023-07-31T06:39:11;9.63;;;4.75;;
25449;SDS011;13371;52.080;5.624;2023-07-31T06:41:37;8.02;;;4.10;;
25449;SDS011;13371;52.080;5.624;2023-07-31T06:44:03;10.27;;;4.47;;
25449;SDS011;13371;52.080;5.624;2023-07-31T06:46:29;8.52;;;3.95;;
25449;SDS011;13371;52.080;5.624;2023-07-31T06:48:54;8.93;;;3.80;;
25449;SDS011;13371;52.080;5.624;2023-07-31T06:51:20;10.07;;;3.45;;
25449;SDS011;13371;52.080;5.624;2023-07-31T06:53:46;11.77;;;3.95;;
25449;SDS011;13371;52.080;5.624;2023-07-31T06:56:11;11.32;;;3.75;;
25449;SDS011;13371;52.080;5.624;2023-07-31T06:58:37;9.18;;;3.60;;
25449;SDS011;13371;52.080;5.624;2023-07-31T07:01:03;10.50;;;3.40;;
25449;SDS011;13371;52.080;5.624;2023-07-31T07:03:29;9.48;;;3.80;;
25449;SDS011;13371;52.080;5.624;2023-07-31T07:05:54;8.27;;;3.47;;
25449;SDS011;13371;52.080;5.624;2023-07-31T07:08:20;6.65;;;3.42;;
25449;SDS011;13371;52.080;5.624;2023-07-31T07:10:46;8.35;;;3.65;;
25449;SDS011;13371;52.080;5.624;2023-07-31T07:13:12;7.45;;;3.13;;
25449;SDS011;13371;52.080;5.624;2023-07-31T07:15:38;7.70;;;3.45;;
25449;SDS011;13371;52.080;5.624;2023-07-31T07:18:04;5.38;;;2.88;;
25449;SDS011;13371;52.080;5.624;2023-07-31T07:20:29;5.38;;;3.05;;
25449;SDS011;13371;52.080;5.624;2023-07-31T07:22:55;7.03;;;2.78;;
25449;SDS011;13371;52.080;5.624;2023-07-31T07:25:21;6.95;;;3.25;;
25449;SDS011;13371;52.080;5.624;2023-07-31T07:27:46;5.30;;;2.97;;
25449;SDS011;13371;52.080;5.624;2023-07-31T07:30:12;5.43;;;2.72;;
25449;SDS011;13371;52.080;5.624;2023-07-31T07:32:39;7.15;;;3.40;;
25449;SDS011;13371;52.080;5.624;2023-07-31T07:35:05;5.95;;;3.47;;
25449;SDS011;13371;52.080;5.624;2023-07-31T07:37:31;5.30;;;3.10;;
25449;SDS011;13371;52.080;5.624;2023-07-31T07:39:57;6.65;;;3.63;;
25449;SDS011;13371;52.080;5.624;2023-07-31T07:42:22;7.05;;;3.67;;
25449;SDS011;13371;52.080;5.624;2023-07-31T07:44:48;7.63;;;3.50;;
25449;SDS011;13371;52.080;5.624;2023-07-31T07:47:14;7.07;;;3.78;;
25449;SDS011;13371;52.080;5.624;2023-07-31T07:49:39;8.30;;;4.15;;
25449;SDS011;13371;52.080;5.624;2023-07-31T07:52:05;7.75;;;4.40;;
25449;SDS011;13371;52.080;5.624;2023-07-31T07:54:31;6.95;;;3.90;;
25449;SDS011;13371;52.080;5.624;2023-07-31T07:56:57;7.55;;;4.05;;
25449;SDS011;13371;52.080;5.624;2023-07-31T07:59:23;6.57;;;4.13;;
25449;SDS011;13371;52.080;5.624;2023-07-31T08:01:48;6.72;;;4.22;;
25449;SDS011;13371;52.080;5.624;2023-07-31T08:04:14;6.25;;;4.10;;
25449;SDS011;13371;52.080;5.624;2023-07-31T08:06:39;7.10;;;4.68;;
25449;SDS011;13371;52.080;5.624;2023-07-31T08:09:05;7.82;;;4.53;;
25449;SDS011;13371;52.080;5.624;2023-07-31T08:11:34;7.18;;;4.70;;
25449;SDS011;13371;52.080;5.624;2023-07-31T08:14:00;7.95;;;5.00;;
25449;SDS011;13371;52.080;5.624;2023-07-31T08:16:26;6.88;;;4.43;;
25449;SDS011;13371;52.080;5.624;2023-07-31T08:18:51;7.45;;;4.28;;
25449;SDS011;13371;52.080;5.624;2023-07-31T08:21:17;7.63;;;4.57;;
25449;SDS011;13371;52.080;5.624;2023-07-31T08:23:42;7.18;;;4.45;;
25449;SDS011;13371;52.080;5.624;2023-07-31T08:26:13;7.22;;;4.68;;
25449;SDS011;13371;52.080;5.624;2023-07-31T08:28:40;6.78;;;4.18;;
25449;SDS011;13371;52.080;5.624;2023-07-31T08:31:05;6.50;;;3.95;;
25449;SDS011;13371;52.080;5.624;2023-07-31T08:33:31;5.68;;;3.45;;
25449;SDS011;13371;52.080;5.624;2023-07-31T08:35:57;5.80;;;4.13;;
25449;SDS011;13371;52.080;5.624;2023-07-31T08:38:22;5.57;;;4.03;;
25449;SDS011;13371;52.080;5.624;2023-07-31T08:40:50;7.43;;;4.00;;
25449;SDS011;13371;52.080;5.624;2023-07-31T08:43:16;9.20;;;4.38;;
25449;SDS011;13371;52.080;5.624;2023-07-31T08:45:41;8.45;;;4.43;;
25449;SDS011;13371;52.080;5.624;2023-07-31T08:48:08;6.07;;;4.40;;
25449;SDS011;13371;52.080;5.624;2023-07-31T08:50:33;5.18;;;4.30;;
25449;SDS011;13371;52.080;5.624;2023-07-31T08:52:59;5.32;;;4.15;;
25449;SDS011;13371;52.080;5.624;2023-07-31T08:55:25;4.55;;;3.75;;
25449;SDS011;13371;52.080;5.624;2023-07-31T08:57:52;6.72;;;4.18;;
25449;SDS011;13371;52.080;5.624;2023-07-31T09:00:19;6.13;;;4.07;;
25449;SDS011;13371;52.080;5.624;2023-07-31T09:03:03;5.85;;;3.53;;
25449;SDS011;13371;52.080;5.624;2023-07-31T09:05:36;6.88;;;3.55;;
25449;SDS011;13371;52.080;5.624;2023-07-31T09:08:06;5.03;;;3.47;;
25449;SDS011;13371;52.080;5.624;2023-07-31T09:10:34;5.25;;;3.67;;
25449;SDS011;13371;52.080;5.624;2023-07-31T09:13:00;5.10;;;3.85;;
25449;SDS011;13371;52.080;5.624;2023-07-31T09:15:26;6.10;;;3.72;;
25449;SDS011;13371;52.080;5.624;2023-07-31T09:18:00;5.60;;;3.55;;
25449;SDS011;13371;52.080;5.624;2023-07-31T09:22:52;7.22;;;4.13;;
25449;SDS011;13371;52.080;5.624;2023-07-31T09:25:20;5.45;;;4.05;;
25449;SDS011;13371;52.080;5.624;2023-07-31T09:27:54;4.63;;;3.60;;
25449;SDS011;13371;52.080;5.624;2023-07-31T09:30:22;5.32;;;3.95;;
25449;SDS011;13371;52.080;5.624;2023-07-31T09:32:48;5.45;;;3.90;;
25449;SDS011;13371;52.080;5.624;2023-07-31T09:37:57;7.05;;;4.20;;
25449;SDS011;13371;52.080;5.624;2023-07-31T09:40:34;7.00;;;4.25;;
25449;SDS011;13371;52.080;5.624;2023-07-31T09:43:02;6.40;;;4.20;;
25449;SDS011;13371;52.080;5.624;2023-07-31T09:45:30;6.22;;;5.05;;
25449;SDS011;13371;52.080;5.624;2023-07-31T09:48:01;6.97;;;5.13;;
25449;SDS011;13371;52.080;5.624;2023-07-31T09:50:28;9.20;;;4.70;;
25449;SDS011;13371;52.080;5.624;2023-07-31T09:52:54;6.72;;;4.97;;
25449;SDS011;13371;52.080;5.624;2023-07-31T09:55:20;6.97;;;5.22;;
25449;SDS011;13371;52.080;5.624;2023-07-31T09:57:47;9.02;;;6.18;;
25449;SDS011;13371;52.080;5.624;2023-07-31T10:00:14;9.63;;;5.72;;
25449;SDS011;13371;52.080;5.624;2023-07-31T10:02:46;8.88;;;6.05;;
25449;SDS011;13371;52.080;5.624;2023-07-31T10:05:15;7.28;;;5.43;;
25449;SDS011;13371;52.080;5.624;2023-07-31T10:07:42;8.77;;;6.05;;
25449;SDS011;13371;52.080;5.624;2023-07-31T10:10:12;9.65;;;5.82;;
25449;SDS011;13371;52.080;5.624;2023-07-31T10:12:39;8.05;;;5.60;;
25449;SDS011;13371;52.080;5.624;2023-07-31T10:15:06;8.77;;;5.78;;
25449;SDS011;13371;52.080;5.624;2023-07-31T10:17:34;9.43;;;5.95;;
25449;SDS011;13371;52.080;5.624;2023-07-31T10:20:02;9.90;;;6.25;;
25449;SDS011;13371;52.080;5.624;2023-07-31T10:22:31;12.57;;;7.43;;
25449;SDS011;13371;52.080;5.624;2023-07-31T10:24:57;10.20;;;6.50;;
25449;SDS011;13371;52.080;5.624;2023-07-31T10:27:24;9.65;;;7.20;;
25449;SDS011;13371;52.080;5.624;2023-07-31T10:29:50;11.00;;;7.55;;
25449;SDS011;13371;52.080;5.624;2023-07-31T10:32:17;9.50;;;6.70;;
25449;SDS011;13371;52.080;5.624;2023-07-31T10:34:43;11.70;;;7.38;;
25449;SDS011;13371;52.080;5.624;2023-07-31T10:45:10;9.68;;;6.95;;
25449;SDS011;13371;52.080;5.624;2023-07-31T10:50:20;10.60;;;6.60;;
25449;SDS011;13371;52.080;5.624;2023-07-31T10:52:52;15.00;;;6.65;;
25449;SDS011;13371;52.080;5.624;2023-07-31T10:58:09;7.80;;;6.18;;
25449;SDS011;13371;52.080;5.624;2023-07-31T11:00:40;10.32;;;6.22;;
25449;SDS011;13371;52.080;5.624;2023-07-31T11:03:08;9.55;;;5.93;;
25449;SDS011;13371;52.080;5.624;2023-07-31T11:08:17;8.80;;;5.50;;
25449;SDS011;13371;52.080;5.624;2023-07-31T11:10:49;11.55;;;4.88;;
25449;SDS011;13371;52.080;5.624;2023-07-31T11:13:27;8.15;;;4.90;;
25449;SDS011;13371;52.080;5.624;2023-07-31T11:15:54;7.90;;;5.03;;
25449;SDS011;13371;52.080;5.624;2023-07-31T11:18:20;6.80;;;5.35;;
25449;SDS011;13371;52.080;5.624;2023-07-31T11:20:46;8.98;;;5.30;;
25449;SDS011;13371;52.080;5.624;2023-07-31T11:23:12;6.00;;;4.38;;
25449;SDS011;13371;52.080;5.624;2023-07-31T11:25:38;6.47;;;3.97;;
25449;SDS011;13371;52.080;5.624;2023-07-31T11:28:14;7.95;;;4.28;;
25449;SDS011;13371;52.080;5.624;2023-07-31T11:33:08;6.25;;;3.63;;
25449;SDS011;13371;52.080;5.624;2023-07-31T11:35:36;6.13;;;3.60;;
25449;SDS011;13371;52.080;5.624;2023-07-31T11:38:09;7.45;;;3.13;;
25449;SDS011;13371;52.080;5.624;2023-07-31T11:40:53;6.00;;;4.00;;
25449;SDS011;13371;52.080;5.624;2023-07-31T11:43:19;6.15;;;4.25;;
25449;SDS011;13371;52.080;5.624;2023-07-31T11:45:47;7.68;;;4.25;;
25449;SDS011;13371;52.080;5.624;2023-07-31T11:50:46;7.80;;;4.82;;
25449;SDS011;13371;52.080;5.624;2023-07-31T11:53:12;8.50;;;4.45;;
25449;SDS011;13371;52.080;5.624;2023-07-31T11:55:38;6.82;;;4.30;;
25449;SDS011;13371;52.080;5.624;2023-07-31T11:58:04;7.75;;;4.47;;
25449;SDS011;13371;52.080;5.624;2023-07-31T12:00:30;7.88;;;5.07;;
25449;SDS011;13371;52.080;5.624;2023-07-31T12:02:56;7.72;;;5.03;;
25449;SDS011;13371;52.080;5.624;2023-07-31T12:05:22;10.40;;;4.82;;
25449;SDS011;13371;52.080;5.624;2023-07-31T12:07:52;7.03;;;4.72;;
25449;SDS011;13371;52.080;5.624;2023-07-31T12:10:26;8.45;;;5.63;;
25449;SDS011;13371;52.080;5.624;2023-07-31T12:12:57;6.05;;;4.43;;
25449;SDS011;13371;52.080;5.624;2023-07-31T12:15:45;9.70;;;5.00;;
25449;SDS011;13371;52.080;5.624;2023-07-31T12:18:14;6.57;;;4.72;;
25449;SDS011;13371;52.080;5.624;2023-07-31T12:20:44;9.13;;;5.13;;
25449;SDS011;13371;52.080;5.624;2023-07-31T12:23:15;6.57;;;4.18;;
25449;SDS011;13371;52.080;5.624;2023-07-31T12:26:14;6.30;;;4.10;;
25449;SDS011;13371;52.080;5.624;2023-07-31T12:28:40;6.10;;;3.78;;
25449;SDS011;13371;52.080;5.624;2023-07-31T12:31:11;6.70;;;4.43;;
25449;SDS011;13371;52.080;5.624;2023-07-31T12:33:39;5.35;;;3.97;;
25449;SDS011;13371;52.080;5.624;2023-07-31T12:36:09;7.70;;;4.45;;
25449;SDS011;13371;52.080;5.624;2023-07-31T12:41:05;4.88;;;3.85;;
25449;SDS011;13371;52.080;5.624;2023-07-31T12:43:32;5.32;;;3.58;;
25449;SDS011;13371;52.080;5.624;2023-07-31T12:45:58;4.65;;;4.13;;
25449;SDS011;13371;52.080;5.624;2023-07-31T12:48:25;6.15;;;4.18;;
25449;SDS011;13371;52.080;5.624;2023-07-31T12:50:50;6.90;;;5.10;;
25449;SDS011;13371;52.080;5.624;2023-07-31T12:53:16;6.70;;;4.28;;
25449;SDS011;13371;52.080;5.624;2023-07-31T12:55:42;5.75;;;4.82;;
25449;SDS011;13371;52.080;5.624;2023-07-31T12:58:07;6.85;;;5.35;;
25449;SDS011;13371;52.080;5.624;2023-07-31T13:00:33;7.10;;;5.32;;
25449;SDS011;13371;52.080;5.624;2023-07-31T13:02:59;7.00;;;5.00;;
25449;SDS011;13371;52.080;5.624;2023-07-31T13:05:25;8.05;;;6.13;;
25449;SDS011;13371;52.080;5.624;2023-07-31T13:07:51;10.65;;;5.90;;
25449;SDS011;13371;52.080;5.624;2023-07-31T13:10:17;9.20;;;5.93;;
25449;SDS011;13371;52.080;5.624;2023-07-31T13:12:42;8.98;;;6.65;;
25449;SDS011;13371;52.080;5.624;2023-07-31T13:15:08;7.38;;;6.50;;
25449;SDS011;13371;52.080;5.624;2023-07-31T13:17:34;8.18;;;7.07;;
25449;SDS011;13371;52.080;5.624;2023-07-31T13:20:00;8.18;;;6.80;;
25449;SDS011;13371;52.080;5.624;2023-07-31T13:22:26;9.07;;;6.93;;
25449;SDS011;13371;52.080;5.624;2023-07-31T13:24:52;8.80;;;6.55;;
25449;SDS011;13371;52.080;5.624;2023-07-31T13:27:17;9.32;;;7.00;;
25449;SDS011;13371;52.080;5.624;2023-07-31T13:29:45;9.60;;;6.72;;
25449;SDS011;13371;52.080;5.624;2023-07-31T13:32:11;8.40;;;6.72;;
25449;SDS011;13371;52.080;5.624;2023-07-31T13:34:37;8.88;;;7.07;;
25449;SDS011;13371;52.080;5.624;2023-07-31T13:37:03;10.25;;;6.55;;
25449;SDS011;13371;52.080;5.624;2023-07-31T13:39:30;11.20;;;7.68;;
25449;SDS011;13371;52.080;5.624;2023-07-31T13:41:56;11.55;;;6.63;;
25449;SDS011;13371;52.080;5.624;2023-07-31T13:44:22;8.43;;;6.70;;
25449;SDS011;13371;52.080;5.624;2023-07-31T13:46:47;9.63;;;6.53;;
25449;SDS011;13371;52.080;5.624;2023-07-31T13:49:13;7.97;;;6.32;;
25449;SDS011;13371;52.080;5.624;2023-07-31T13:51:39;8.68;;;6.50;;
25449;SDS011;13371;52.080;5.624;2023-07-31T13:54:05;9.48;;;6.70;;
25449;SDS011;13371;52.080;5.624;2023-07-31T13:56:31;11.02;;;6.35;;
25449;SDS011;13371;52.080;5.624;2023-07-31T13:58:57;9.02;;;5.97;;
25449;SDS011;13371;52.080;5.624;2023-07-31T14:01:23;9.00;;;6.88;;
25449;SDS011;13371;52.080;5.624;2023-07-31T14:03:49;10.82;;;6.90;;
25449;SDS011;13371;52.080;5.624;2023-07-31T14:06:14;10.00;;;7.30;;
25449;SDS011;13371;52.080;5.624;2023-07-31T14:08:40;8.77;;;6.30;;
25449;SDS011;13371;52.080;5.624;2023-07-31T14:11:06;9.55;;;7.07;;
25449;SDS011;13371;52.080;5.624;2023-07-31T14:13:31;9.65;;;7.88;;
25449;SDS011;13371;52.080;5.624;2023-07-31T14:15:57;10.55;;;8.38;;
25449;SDS011;13371;52.080;5.624;2023-07-31T14:18:22;11.45;;;8.57;;
25449;SDS011;13371;52.080;5.624;2023-07-31T14:20:48;13.23;;;8.50;;
25449;SDS011;13371;52.080;5.624;2023-07-31T14:23:14;12.00;;;8.73;;
25449;SDS011;13371;52.080;5.624;2023-07-31T14:25:40;14.02;;;9.05;;
25449;SDS011;13371;52.080;5.624;2023-07-31T14:28:06;12.15;;;8.82;;
25449;SDS011;13371;52.080;5.624;2023-07-31T14:30:31;13.60;;;9.30;;
25449;SDS011;13371;52.080;5.624;2023-07-31T14:32:57;12.57;;;8.88;;
25449;SDS011;13371;52.080;5.624;2023-07-31T14:35:23;12.65;;;9.18;;
25449;SDS011;13371;52.080;5.624;2023-07-31T14:37:48;13.57;;;7.53;;
25449;SDS011;13371;52.080;5.624;2023-07-31T14:40:14;13.32;;;7.97;;
25449;SDS011;13371;52.080;5.624;2023-07-31T14:42:40;9.77;;;7.50;;
25449;SDS011;13371;52.080;5.624;2023-07-31T14:45:06;10.63;;;7.32;;
25449;SDS011;13371;52.080;5.624;2023-07-31T14:47:32;11.13;;;7.38;;
25449;SDS011;13371;52.080;5.624;2023-07-31T14:49:58;10.88;;;6.47;;
25449;SDS011;13371;52.080;5.624;2023-07-31T14:52:25;10.50;;;6.07;;
25449;SDS011;13371;52.080;5.624;2023-07-31T14:54:51;9.00;;;5.97;;
25449;SDS011;13371;52.080;5.624;2023-07-31T14:57:16;7.53;;;5.53;;
25449;SDS011;13371;52.080;5.624;2023-07-31T14:59:42;11.13;;;5.50;;
25449;SDS011;13371;52.080;5.624;2023-07-31T15:02:09;10.27;;;6.07;;
25449;SDS011;13371;52.080;5.624;2023-07-31T15:04:35;7.85;;;5.68;;
25449;SDS011;13371;52.080;5.624;2023-07-31T15:07:01;9.02;;;5.35;;
25449;SDS011;13371;52.080;5.624;2023-07-31T15:09:27;12.20;;;6.47;;